createdAt,value
2023-05-01T00:00:18.144Z,43.3027
2023-05-01T00:01:20.714Z,40.9022
2023-05-01T00:02:22.937Z,42.7747
2023-05-01T00:03:25.385Z,42.5590
2023-05-01T00:04:27.514Z,41.7707
2023-05-01T00:05:29.851Z,43.7709
2023-05-01T00:06:32.260Z,41.7279
2023-05-01T00:07:34.556Z,41.1450
2023-05-01T00:08:36.871Z,43.2093
2023-05-01T00:09:39.238Z,42.3093
2023-05-01T00:10:41.574Z,42.1403
2023-05-01T00:11:43.899Z,43.8087
2023-05-01T00:12:46.384Z,41.3079
2023-05-01T00:13:48.588Z,43.2386
2023-05-01T00:14:50.909Z,40.8565
2023-05-01T00:15:53.427Z,40.7011
2023-05-01T00:16:55.773Z,38.8386
2023-05-01T00:17:57.950Z,39.8741
2023-05-01T00:19:00.266Z,41.5391
2023-05-01T00:20:02.618Z,41.0871
2023-05-01T00:21:04.948Z,39.6648
2023-05-01T00:22:07.326Z,42.1174
2023-05-01T00:23:10.231Z,42.6869
2023-05-01T00:24:11.995Z,40.6736
2023-05-01T00:25:14.309Z,42.7776
2023-05-01T00:26:16.651Z,43.4613
2023-05-01T00:27:19.195Z,42.0140
2023-05-01T00:28:21.339Z,40.2149
2023-05-01T00:29:23.711Z,41.1135
2023-05-01T00:30:26.026Z,40.2231
2023-05-01T00:31:29.877Z,45.1481
2023-05-01T00:32:30.719Z,43.9789
2023-05-01T00:33:33.784Z,40.3627
2023-05-01T00:34:35.404Z,43.8792
2023-05-01T00:35:37.760Z,43.6224
2023-05-01T00:36:40.068Z,42.8717
2023-05-01T00:37:42.736Z,45.1145
2023-05-01T00:38:44.725Z,44.7225
2023-05-01T00:39:47.160Z,45.1616
2023-05-01T00:40:49.426Z,47.2555
2023-05-01T00:41:52.272Z,45.4898
2023-05-01T00:42:54.121Z,47.1858
2023-05-01T00:43:56.418Z,46.2955
2023-05-01T00:44:58.759Z,44.1236
2023-05-01T00:46:01.149Z,43.9080
2023-05-01T00:47:03.511Z,47.2404
2023-05-01T00:48:07.712Z,44.2859
2023-05-01T00:49:08.116Z,47.3679
2023-05-01T00:50:10.455Z,44.4312
2023-05-01T00:51:12.793Z,50.5729
2023-05-01T00:52:15.193Z,49.7800
2023-05-01T00:53:17.631Z,50.8724
2023-05-01T00:54:19.790Z,51.0313
2023-05-01T00:55:22.153Z,50.8798
2023-05-01T00:56:24.469Z,48.7473
2023-05-01T00:57:26.820Z,47.6697
2023-05-01T00:58:29.144Z,46.1198
2023-05-01T00:59:31.768Z,47.5624
2023-05-01T01:00:34.493Z,47.7186
2023-05-01T01:01:36.180Z,49.5290
2023-05-01T01:02:38.629Z,47.8923
2023-05-01T01:03:40.827Z,49.9683
2023-05-01T01:04:43.168Z,45.4810
2023-05-01T01:05:45.534Z,47.2312
2023-05-01T01:06:48.367Z,49.7647
2023-05-01T01:07:50.174Z,47.7704
2023-05-01T01:08:52.561Z,51.0181
2023-05-01T01:09:55.129Z,52.8568
2023-05-01T01:10:57.221Z,48.8709
2023-05-01T01:11:59.569Z,50.6689
2023-05-01T01:13:01.901Z,54.8560
2023-05-01T01:14:04.279Z,50.7764
2023-05-01T01:15:06.747Z,53.8013
2023-05-01T01:16:08.986Z,52.6302
2023-05-01T01:17:11.433Z,51.7405
2023-05-01T01:18:13.617Z,53.8581
2023-05-01T01:19:15.973Z,53.2818
2023-05-01T01:20:18.206Z,48.9222
2023-05-01T01:21:20.564Z,52.5433
2023-05-01T01:22:23.107Z,50.4934
2023-05-01T01:23:25.331Z,52.3778
2023-05-01T01:24:27.576Z,53.6545
2023-05-01T01:25:29.900Z,50.5973
2023-05-01T01:26:32.332Z,53.1810
2023-05-01T01:27:34.655Z,52.8820
2023-05-01T01:28:36.938Z,51.0019
2023-05-01T01:29:39.256Z,52.2003
2023-05-01T01:30:41.633Z,49.5602
2023-05-01T01:31:44.055Z,48.2731
2023-05-01T01:32:46.367Z,48.6540
2023-05-01T01:33:48.563Z,49.3526
2023-05-01T01:34:50.949Z,49.3172
2023-05-01T01:35:53.271Z,51.0663
2023-05-01T01:36:55.674Z,49.0355
2023-05-01T01:37:57.923Z,50.9639
2023-05-01T01:39:00.277Z,51.8126
2023-05-01T01:40:02.686Z,50.3078
2023-05-01T01:41:04.950Z,51.5108
2023-05-01T01:42:07.280Z,55.5578
2023-05-01T01:43:09.810Z,52.3772
2023-05-01T01:44:12.010Z,51.5393
2023-05-01T01:45:14.316Z,50.3793
2023-05-01T01:46:16.629Z,52.7149
2023-05-01T01:47:18.986Z,49.9453
2023-05-01T01:48:21.290Z,53.1528
2023-05-01T01:49:23.735Z,51.8817
2023-05-01T01:50:26.091Z,53.7831
2023-05-01T01:51:28.490Z,51.3980
2023-05-01T01:52:30.699Z,53.1563
2023-05-01T01:53:32.974Z,52.5354
2023-05-01T01:54:35.352Z,52.8802
2023-05-01T01:55:37.671Z,51.5623
2023-05-01T01:56:39.954Z,54.2367
2023-05-01T01:57:42.349Z,53.3105
2023-05-01T01:58:44.654Z,51.6455
2023-05-01T01:59:47.003Z,52.1119
2023-05-01T02:00:49.402Z,51.3680
2023-05-01T02:01:51.889Z,53.4899
2023-05-01T02:02:54.112Z,54.0105
2023-05-01T02:03:56.630Z,54.1119
2023-05-01T02:04:58.768Z,52.0660
2023-05-01T02:06:01.100Z,52.2018
2023-05-01T02:07:03.494Z,51.7458
2023-05-01T02:08:05.705Z,48.8744
2023-05-01T02:09:08.039Z,53.5744
2023-05-01T02:10:10.596Z,50.1840
2023-05-01T02:11:12.823Z,50.7342
2023-05-01T02:12:15.026Z,54.5080
2023-05-01T02:13:17.476Z,52.6319
2023-05-01T02:14:19.667Z,53.2495
2023-05-01T02:15:22.077Z,54.8609
2023-05-01T02:16:24.678Z,52.6585
2023-05-01T02:17:26.812Z,50.8182
2023-05-01T02:18:29.097Z,50.7496
2023-05-01T02:19:31.394Z,48.8696
2023-05-01T02:20:33.952Z,50.8596
2023-05-01T02:21:36.070Z,51.7114
2023-05-01T02:22:38.998Z,51.2449
2023-05-01T02:23:41.198Z,52.0992
2023-05-01T02:24:43.094Z,53.0665
2023-05-01T02:25:45.368Z,50.1748
2023-05-01T02:26:47.938Z,51.0170
2023-05-01T02:27:50.063Z,50.4078
2023-05-01T02:28:52.504Z,52.7758
2023-05-01T02:29:55.440Z,52.1277
2023-05-01T02:30:57.169Z,50.6596
2023-05-01T02:31:59.565Z,54.9697
2023-05-01T02:33:01.970Z,53.9359
2023-05-01T02:34:04.160Z,50.7587
2023-05-01T02:35:06.598Z,51.8842
2023-05-01T02:36:08.857Z,54.8285
2023-05-01T02:37:11.332Z,55.4169
2023-05-01T02:38:13.508Z,50.2502
2023-05-01T02:39:15.969Z,53.0698
2023-05-01T02:40:18.217Z,53.2431
2023-05-01T02:41:20.518Z,57.8061
2023-05-01T02:42:22.915Z,51.7465
2023-05-01T02:43:25.466Z,56.0960
2023-05-01T02:44:27.570Z,52.6000
2023-05-01T02:45:29.989Z,54.8414
2023-05-01T02:46:32.213Z,55.5096
2023-05-01T02:47:34.618Z,50.9907
2023-05-01T02:48:36.904Z,54.6600
2023-05-01T02:49:39.233Z,51.8857
2023-05-01T02:50:41.645Z,52.9988
2023-05-01T02:51:43.963Z,51.3778
2023-05-01T02:52:46.240Z,51.6926
2023-05-01T02:53:48.585Z,48.9015
2023-05-01T02:54:50.972Z,53.4848
2023-05-01T02:55:53.264Z,50.1274
2023-05-01T02:56:55.606Z,52.4063
2023-05-01T02:57:57.932Z,48.4324
2023-05-01T02:59:00.508Z,48.6838
2023-05-01T03:00:02.686Z,50.9142
2023-05-01T03:01:04.988Z,51.6879
2023-05-01T03:02:07.284Z,51.6210
2023-05-01T03:03:09.700Z,53.2788
2023-05-01T03:04:12.029Z,52.5066
2023-05-01T03:05:14.307Z,50.7203
2023-05-01T03:06:16.759Z,52.6254
2023-05-01T03:07:18.995Z,47.6214
2023-05-01T03:08:21.325Z,51.1250
2023-05-01T03:09:23.682Z,49.1633
2023-05-01T03:10:26.027Z,49.3193
2023-05-01T03:11:28.473Z,49.4775
2023-05-01T03:12:30.744Z,47.8828
2023-05-01T03:13:33.031Z,50.5324
2023-05-01T03:14:35.371Z,47.7347
2023-05-01T03:15:37.721Z,47.8865
2023-05-01T03:16:40.140Z,49.1533
2023-05-01T03:17:42.467Z,46.9318
2023-05-01T03:18:44.719Z,47.0644
2023-05-01T03:19:47.124Z,52.5804
2023-05-01T03:20:49.395Z,50.3994
2023-05-01T03:21:51.755Z,49.0304
2023-05-01T03:22:54.092Z,53.3011
2023-05-01T03:23:56.414Z,50.3159
2023-05-01T03:24:58.757Z,51.3418
2023-05-01T03:26:01.099Z,52.7816
2023-05-01T03:27:03.458Z,49.8952
2023-05-01T03:28:05.763Z,51.6354
2023-05-01T03:29:08.109Z,54.1998
2023-05-01T03:30:10.431Z,52.5472
2023-05-01T03:31:12.774Z,50.6366
2023-05-01T03:32:15.248Z,51.2955
2023-05-01T03:33:17.516Z,53.6934
2023-05-01T03:34:19.758Z,53.8544
2023-05-01T03:35:22.138Z,51.5280
2023-05-01T03:36:24.437Z,52.7808
2023-05-01T03:37:26.801Z,55.1072
2023-05-01T03:38:29.130Z,53.0274
2023-05-01T03:39:31.454Z,54.0478
2023-05-01T03:40:33.794Z,54.3773
2023-05-01T03:41:36.125Z,52.2033
2023-05-01T03:42:38.489Z,54.2698
2023-05-01T03:43:40.807Z,50.4780
2023-05-01T03:44:43.140Z,54.9495
2023-05-01T03:45:45.513Z,53.5009
2023-05-01T03:46:47.837Z,53.4303
2023-05-01T03:47:50.220Z,56.3116
2023-05-01T03:48:52.502Z,55.8010
2023-05-01T03:49:54.920Z,52.4440
2023-05-01T03:50:57.193Z,54.5216
2023-05-01T03:51:59.495Z,55.0656
2023-05-01T03:53:01.923Z,54.0203
2023-05-01T03:54:04.210Z,56.6510
2023-05-01T03:55:06.518Z,54.8718
2023-05-01T03:56:08.868Z,50.5088
2023-05-01T03:57:11.201Z,54.1058
2023-05-01T03:58:13.552Z,53.5687
2023-05-01T03:59:15.928Z,55.3041
2023-05-01T04:00:18.230Z,58.2714
2023-05-01T04:01:20.551Z,56.8333
2023-05-01T04:02:22.986Z,54.2099
2023-05-01T04:03:25.382Z,51.6543
2023-05-01T04:04:27.589Z,54.6586
2023-05-01T04:05:29.912Z,52.6166
2023-05-01T04:06:32.386Z,55.3849
2023-05-01T04:07:34.587Z,54.8140
2023-05-01T04:08:36.958Z,56.2032
2023-05-01T04:09:39.254Z,56.1663
2023-05-01T04:10:41.675Z,51.2177
2023-05-01T04:11:43.939Z,55.9863
2023-05-01T04:12:46.272Z,53.4704
2023-05-01T04:13:48.608Z,53.8038
2023-05-01T04:14:50.942Z,56.8213
2023-05-01T04:15:53.332Z,55.2775
2023-05-01T04:16:55.623Z,60.1850
2023-05-01T04:17:58.030Z,58.5392
2023-05-01T04:19:00.297Z,59.7019
2023-05-01T04:20:02.639Z,60.1089
2023-05-01T04:21:04.982Z,57.6644
2023-05-01T04:22:07.315Z,56.6353
2023-05-01T04:23:09.690Z,57.4429
2023-05-01T04:24:11.991Z,57.1633
2023-05-01T04:25:14.383Z,58.2262
2023-05-01T04:26:16.671Z,58.8201
2023-05-01T04:27:19.032Z,59.5760
2023-05-01T04:28:21.361Z,61.3027
2023-05-01T04:29:24.613Z,59.5789
2023-05-01T04:30:26.103Z,58.8902
2023-05-01T04:31:28.512Z,60.7034
2023-05-01T04:32:30.745Z,58.3495
2023-05-01T04:33:33.021Z,57.3785
2023-05-01T04:34:35.418Z,58.6470
2023-05-01T04:35:37.724Z,60.4173
2023-05-01T04:36:40.198Z,59.6099
2023-05-01T04:37:42.371Z,59.6956
2023-05-01T04:38:44.675Z,61.3500
2023-05-01T04:39:47.023Z,61.3352
2023-05-01T04:40:49.495Z,60.8861
2023-05-01T04:41:51.737Z,60.5769
2023-05-01T04:42:54.022Z,61.1224
2023-05-01T04:43:56.367Z,59.3861
2023-05-01T04:44:58.708Z,60.0945
2023-05-01T04:46:01.063Z,57.9856
2023-05-01T04:47:03.469Z,57.6008
2023-05-01T04:48:05.791Z,61.2649
2023-05-01T04:49:08.060Z,58.5552
2023-05-01T04:50:10.415Z,60.1166
2023-05-01T04:51:12.721Z,59.6426
2023-05-01T04:52:15.112Z,58.4229
2023-05-01T04:53:17.525Z,60.5898
2023-05-01T04:54:19.736Z,59.5307
2023-05-01T04:55:22.175Z,63.7600
2023-05-01T04:56:24.411Z,59.9959
2023-05-01T04:57:26.754Z,59.7316
2023-05-01T04:58:29.158Z,60.6456
2023-05-01T04:59:31.553Z,60.4001
2023-05-01T05:00:33.885Z,62.2095
2023-05-01T05:01:36.177Z,59.6278
2023-05-01T05:02:38.608Z,59.8577
2023-05-01T05:03:40.876Z,55.8200
2023-05-01T05:04:43.144Z,62.8055
2023-05-01T05:05:45.603Z,61.2948
2023-05-01T05:06:47.894Z,56.6479
2023-05-01T05:07:50.155Z,59.9931
2023-05-01T05:08:52.479Z,59.7941
2023-05-01T05:09:55.058Z,61.2928
2023-05-01T05:10:57.871Z,55.9138
2023-05-01T05:11:59.678Z,59.6560
2023-05-01T05:13:01.858Z,59.1399
2023-05-01T05:14:04.272Z,61.1520
2023-05-01T05:15:06.667Z,63.1935
2023-05-01T05:16:08.976Z,59.1737
2023-05-01T05:17:11.380Z,57.8920
2023-05-01T05:18:13.642Z,57.4271
2023-05-01T05:19:15.852Z,56.3623
2023-05-01T05:20:18.257Z,60.0965
2023-05-01T05:21:20.581Z,57.0584
2023-05-01T05:22:22.866Z,57.7794
2023-05-01T05:23:25.229Z,57.2015
2023-05-01T05:24:27.588Z,61.5665
2023-05-01T05:25:29.882Z,57.6446
2023-05-01T05:26:32.257Z,59.4812
2023-05-01T05:27:34.628Z,58.8874
2023-05-01T05:28:36.911Z,57.5243
2023-05-01T05:29:39.346Z,60.1831
2023-05-01T05:30:41.561Z,57.3335
2023-05-01T05:31:43.950Z,57.6293
2023-05-01T05:32:46.296Z,58.1902
2023-05-01T05:33:48.666Z,56.0530
2023-05-01T05:34:51.125Z,58.2180
2023-05-01T05:35:53.244Z,57.2285
2023-05-01T05:36:55.716Z,54.6109
2023-05-01T05:37:57.965Z,57.1764
2023-05-01T05:39:00.337Z,57.8136
2023-05-01T05:40:02.623Z,62.1724
2023-05-01T05:41:04.950Z,66.0932
2023-05-01T05:42:07.298Z,62.2753
2023-05-01T05:43:09.674Z,61.9148
2023-05-01T05:44:12.167Z,64.6088
2023-05-01T05:45:14.468Z,65.5954
2023-05-01T05:46:16.795Z,63.0773
2023-05-01T05:47:19.161Z,63.9300
2023-05-01T05:48:21.505Z,66.5270
2023-05-01T05:49:23.732Z,69.4794
2023-05-01T05:50:26.059Z,68.5210
2023-05-01T05:51:28.560Z,71.3034
2023-05-01T05:52:30.685Z,66.4244
2023-05-01T05:53:33.061Z,64.4167
2023-05-01T05:54:35.376Z,66.9511
2023-05-01T05:55:37.723Z,66.6452
2023-05-01T05:56:40.050Z,66.4307
2023-05-01T05:57:42.515Z,67.9041
2023-05-01T05:58:44.733Z,69.1609
2023-05-01T05:59:47.067Z,65.5900
2023-05-01T06:00:49.434Z,64.9982
2023-05-01T06:01:51.753Z,64.4808
2023-05-01T06:02:54.142Z,62.7461
2023-05-01T06:03:56.562Z,62.6194
2023-05-01T06:04:58.783Z,64.5985
2023-05-01T06:06:01.462Z,66.5973
2023-05-01T06:07:03.481Z,62.4613
2023-05-01T06:08:05.818Z,61.0725
2023-05-01T06:09:08.131Z,64.3347
2023-05-01T06:10:10.467Z,61.6020
2023-05-01T06:11:12.857Z,61.9526
2023-05-01T06:12:15.170Z,59.7472
2023-05-01T06:13:17.526Z,56.5075
2023-05-01T06:14:19.851Z,58.1602
2023-05-01T06:15:22.356Z,56.0152
2023-05-01T06:16:24.614Z,63.9235
2023-05-01T06:17:26.871Z,63.4952
2023-05-01T06:18:29.182Z,63.2255
2023-05-01T06:19:31.569Z,58.0743
2023-05-01T06:20:33.863Z,59.3634
2023-05-01T06:21:36.358Z,62.2550
2023-05-01T06:22:38.582Z,63.2155
2023-05-01T06:23:40.873Z,67.1761
2023-05-01T06:24:43.220Z,63.8192
2023-05-01T06:25:45.568Z,61.9977
2023-05-01T06:26:47.898Z,61.9986
2023-05-01T06:27:50.375Z,62.1244
2023-05-01T06:28:52.598Z,59.8557
2023-05-01T06:29:55.144Z,61.0632
2023-05-01T06:30:57.254Z,63.0451
2023-05-01T06:31:59.797Z,61.6485
2023-05-01T06:33:01.941Z,62.7041
2023-05-01T06:34:04.266Z,65.0109
2023-05-01T06:35:06.682Z,64.2027
2023-05-01T06:36:09.233Z,65.0722
2023-05-01T06:37:11.358Z,60.0383
2023-05-01T06:38:13.832Z,62.2581
2023-05-01T06:39:16.014Z,59.8269
2023-05-01T06:40:18.461Z,60.9043
2023-05-01T06:41:20.775Z,59.3615
2023-05-01T06:42:23.211Z,61.1669
2023-05-01T06:43:25.387Z,60.1688
2023-05-01T06:44:27.724Z,64.5211
2023-05-01T06:45:30.156Z,64.2660
2023-05-01T06:46:32.442Z,63.9777
2023-05-01T06:47:34.916Z,65.1530
2023-05-01T06:48:37.271Z,66.5984
2023-05-01T06:49:39.503Z,66.1787
2023-05-01T06:50:41.752Z,65.0003
2023-05-01T06:51:44.145Z,65.2223
2023-05-01T06:52:46.419Z,63.2211
2023-05-01T06:53:48.834Z,61.6806
2023-05-01T06:54:51.099Z,65.1138
2023-05-01T06:55:53.426Z,62.5184
2023-05-01T06:56:55.968Z,61.9255
2023-05-01T06:57:59.757Z,63.0514
2023-05-01T06:59:00.467Z,63.1063
2023-05-01T07:00:02.844Z,62.2068
2023-05-01T07:01:05.152Z,63.5157
2023-05-01T07:02:07.548Z,62.5369
2023-05-01T07:03:09.886Z,61.9260
2023-05-01T07:04:12.298Z,58.9822
2023-05-01T07:05:14.515Z,60.6184
2023-05-01T07:06:16.936Z,62.9358
2023-05-01T07:07:19.159Z,62.3427
2023-05-01T07:08:21.534Z,65.6069
2023-05-01T07:09:23.872Z,64.1140
2023-05-01T07:10:26.238Z,61.2136
2023-05-01T07:11:28.552Z,58.4982
2023-05-01T07:12:30.845Z,60.3069
2023-05-01T07:13:33.215Z,61.3926
2023-05-01T07:14:35.586Z,60.3110
2023-05-01T07:15:37.867Z,56.4742
2023-05-01T07:16:40.328Z,60.8971
2023-05-01T07:17:42.567Z,58.9591
2023-05-01T07:18:44.956Z,61.2526
2023-05-01T07:19:47.250Z,60.8929
2023-05-01T07:20:49.601Z,57.5063
2023-05-01T07:21:51.879Z,60.2808
2023-05-01T07:22:54.245Z,61.5433
2023-05-01T07:23:56.585Z,60.0777
2023-05-01T07:24:58.933Z,57.6148
2023-05-01T07:26:01.255Z,61.2911
2023-05-01T07:27:03.594Z,54.5194
2023-05-01T07:28:05.906Z,59.2679
2023-05-01T07:29:08.243Z,61.3741
2023-05-01T07:30:10.580Z,57.8430
2023-05-01T07:31:12.933Z,57.5428
2023-05-01T07:32:15.345Z,54.8287
2023-05-01T07:33:17.644Z,54.6722
2023-05-01T07:34:19.969Z,57.2738
2023-05-01T07:35:22.264Z,54.6402
2023-05-01T07:36:24.730Z,55.0352
2023-05-01T07:37:27.011Z,53.5807
2023-05-01T07:38:29.247Z,59.8309
2023-05-01T07:39:31.575Z,56.6349
2023-05-01T07:40:33.923Z,52.5089
2023-05-01T07:41:36.272Z,53.2471
2023-05-01T07:42:38.596Z,58.0759
2023-05-01T07:43:40.917Z,54.7219
2023-05-01T07:44:43.256Z,54.3387
2023-05-01T07:45:45.717Z,54.3738
2023-05-01T07:46:47.929Z,54.3357
2023-05-01T07:47:50.348Z,51.3536
2023-05-01T07:48:52.613Z,52.0746
2023-05-01T07:49:55.334Z,55.7055
2023-05-01T07:50:57.367Z,55.9219
2023-05-01T07:51:59.618Z,56.4652
2023-05-01T07:53:02.156Z,54.9978
2023-05-01T07:54:04.395Z,56.4492
2023-05-01T07:55:06.620Z,53.4856
2023-05-01T07:56:09.078Z,53.5672
2023-05-01T07:57:11.297Z,51.9951
2023-05-01T07:58:13.678Z,53.3225
2023-05-01T07:59:15.968Z,49.3357
2023-05-01T08:00:18.303Z,50.1055
2023-05-01T08:01:20.643Z,51.9592
2023-05-01T08:02:23.183Z,54.8539
2023-05-01T08:03:25.494Z,54.6903
2023-05-01T08:04:27.662Z,56.7650
2023-05-01T08:05:30.035Z,54.3865
2023-05-01T08:06:32.402Z,54.0038
2023-05-01T08:07:34.660Z,53.8055
2023-05-01T08:08:37.037Z,54.0206
2023-05-01T08:09:39.332Z,56.1798
2023-05-01T08:10:41.675Z,56.1058
2023-05-01T08:11:44.007Z,61.0146
2023-05-01T08:12:46.405Z,59.0266
2023-05-01T08:13:48.689Z,60.4052
2023-05-01T08:14:51.021Z,58.0260
2023-05-01T08:15:53.381Z,55.7977
2023-05-01T08:16:55.726Z,58.8150
2023-05-01T08:17:58.075Z,57.0008
2023-05-01T08:19:00.420Z,57.7594
2023-05-01T08:20:02.716Z,56.1132
2023-05-01T08:21:05.110Z,58.0518
2023-05-01T08:22:07.412Z,46.5262
2023-05-01T08:23:09.730Z,39.8818
2023-05-01T08:24:12.069Z,42.4574
2023-05-01T08:25:14.391Z,46.9026
2023-05-01T08:26:16.730Z,41.1206
2023-05-01T08:27:19.068Z,31.8576
2023-05-01T08:28:21.524Z,31.9755
2023-05-01T08:29:23.763Z,33.3725
2023-05-01T08:30:26.125Z,32.7510
2023-05-01T08:31:28.474Z,32.5300
2023-05-01T08:32:30.796Z,31.3502
2023-05-01T08:33:33.074Z,30.9005
2023-05-01T08:34:35.422Z,32.2903
2023-05-01T08:35:37.898Z,30.4488
2023-05-01T08:36:40.237Z,34.4277
2023-05-01T08:37:42.453Z,29.2945
2023-05-01T08:38:44.749Z,26.7625
2023-05-01T08:39:47.102Z,30.6616
2023-05-01T08:40:49.420Z,28.9608
2023-05-01T08:41:51.748Z,29.7634
2023-05-01T08:42:54.108Z,31.4775
2023-05-01T08:43:56.421Z,33.1130
2023-05-01T08:44:58.772Z,32.1450
2023-05-01T08:46:01.111Z,36.9862
2023-05-01T08:47:03.509Z,36.6179
2023-05-01T08:48:05.788Z,29.4544
2023-05-01T08:49:08.300Z,29.2442
2023-05-01T08:50:10.437Z,28.5987
2023-05-01T08:51:12.834Z,29.8948
2023-05-01T08:52:15.090Z,30.8940
2023-05-01T08:53:17.436Z,31.3061
2023-05-01T08:54:19.769Z,31.8551
2023-05-01T08:55:22.168Z,32.4062
2023-05-01T08:56:24.528Z,31.8645
2023-05-01T08:57:26.755Z,28.4483
2023-05-01T08:58:29.249Z,30.1709
2023-05-01T08:59:31.442Z,29.4987
2023-05-01T09:00:33.779Z,30.7511
2023-05-01T09:01:36.137Z,30.2620
2023-05-01T09:02:38.516Z,31.7260
2023-05-01T09:03:40.949Z,32.2862
2023-05-01T09:04:43.196Z,30.6670
2023-05-01T09:05:45.480Z,31.5989
2023-05-01T09:06:47.865Z,31.0404
2023-05-01T09:07:50.105Z,32.7595
2023-05-01T09:08:52.446Z,32.8395
2023-05-01T09:09:55.042Z,33.6537
2023-05-01T09:10:57.152Z,30.8990
2023-05-01T09:11:59.488Z,30.5630
2023-05-01T09:13:01.821Z,31.4773
2023-05-01T09:14:04.144Z,30.8528
2023-05-01T09:15:06.475Z,34.1445
2023-05-01T09:16:08.964Z,31.1495
2023-05-01T09:17:11.141Z,27.7261
2023-05-01T09:18:13.534Z,32.6184
2023-05-01T09:19:15.791Z,32.0478
2023-05-01T09:20:18.151Z,31.8637
2023-05-01T09:21:20.481Z,28.2575
2023-05-01T09:22:22.807Z,30.5185
2023-05-01T09:23:25.154Z,30.4153
2023-05-01T09:24:27.498Z,29.0194
2023-05-01T09:25:29.816Z,31.6721
2023-05-01T09:26:32.165Z,32.2419
2023-05-01T09:27:34.505Z,33.9210
2023-05-01T09:28:36.856Z,35.0170
2023-05-01T09:29:39.228Z,31.3035
2023-05-01T09:30:41.478Z,33.4991
2023-05-01T09:31:43.892Z,33.1509
2023-05-01T09:32:46.187Z,28.4080
2023-05-01T09:33:48.532Z,34.6899
2023-05-01T09:34:50.907Z,31.4431
2023-05-01T09:35:53.251Z,32.7705
2023-05-01T09:36:55.559Z,31.3937
2023-05-01T09:37:57.859Z,31.2372
2023-05-01T09:39:00.176Z,30.0195
2023-05-01T09:40:02.541Z,31.0460
2023-05-01T09:41:04.841Z,32.5076
2023-05-01T09:42:07.257Z,30.4508
2023-05-01T09:43:11.220Z,30.1504
2023-05-01T09:44:11.869Z,29.5563
2023-05-01T09:45:14.292Z,31.0140
2023-05-01T09:46:16.657Z,30.1576
2023-05-01T09:47:18.876Z,28.1884
2023-05-01T09:48:21.198Z,27.9266
2023-05-01T09:49:23.575Z,28.7137
2023-05-01T09:50:25.891Z,29.7906
2023-05-01T09:51:28.222Z,27.3861
2023-05-01T09:52:30.567Z,27.6456
2023-05-01T09:53:32.876Z,27.2351
2023-05-01T09:54:35.212Z,27.1843
2023-05-01T09:55:37.546Z,26.1243
2023-05-01T09:56:39.881Z,26.4062
2023-05-01T09:57:42.266Z,24.9316
2023-05-01T09:58:44.637Z,26.1836
2023-05-01T09:59:46.890Z,28.8160
2023-05-01T10:00:49.268Z,27.6714
2023-05-01T10:01:51.634Z,30.4173
2023-05-01T10:02:54.092Z,28.2333
2023-05-01T10:03:56.680Z,30.7741
2023-05-01T10:04:58.755Z,30.5053
2023-05-01T10:06:01.184Z,31.1318
2023-05-01T10:07:03.280Z,29.1700
2023-05-01T10:08:05.605Z,30.1952
2023-05-01T10:09:07.930Z,30.6478
2023-05-01T10:10:10.256Z,29.5891
2023-05-01T10:11:12.604Z,28.4492
2023-05-01T10:12:14.930Z,27.1399
2023-05-01T10:13:17.303Z,32.4284
2023-05-01T10:14:19.604Z,30.6787
2023-05-01T10:15:26.323Z,30.5659
2023-05-01T10:16:24.327Z,29.1750
2023-05-01T10:17:26.664Z,26.3733
2023-05-01T10:18:28.991Z,29.3142
2023-05-01T10:19:31.306Z,28.6369
2023-05-01T10:20:33.645Z,28.5955
2023-05-01T10:21:35.962Z,28.6120
2023-05-01T10:22:38.306Z,27.2481
2023-05-01T10:23:40.636Z,27.0184
2023-05-01T10:24:42.985Z,27.4651
2023-05-01T10:25:45.328Z,26.0585
2023-05-01T10:26:47.639Z,27.7557
2023-05-01T10:27:49.976Z,25.9631
2023-05-01T10:28:52.312Z,24.9652
2023-05-01T10:29:54.996Z,24.4963
2023-05-01T10:30:57.038Z,25.5055
2023-05-01T10:31:59.399Z,23.7208
2023-05-01T10:33:01.678Z,25.9736
2023-05-01T10:34:03.999Z,24.9950
2023-05-01T10:35:06.355Z,23.9094
2023-05-01T10:36:08.679Z,24.6120
2023-05-01T10:37:11.000Z,25.2800
2023-05-01T10:38:13.361Z,25.8775
2023-05-01T10:39:15.678Z,25.6872
2023-05-01T10:40:18.095Z,21.8870
2023-05-01T10:41:20.430Z,23.8132
2023-05-01T10:42:23.003Z,24.3043
2023-05-01T10:43:25.097Z,23.3205
2023-05-01T10:44:27.460Z,22.9214
2023-05-01T10:45:29.782Z,23.2224
2023-05-01T10:46:32.180Z,22.2666
2023-05-01T10:47:34.471Z,20.5578
2023-05-01T10:48:36.796Z,22.1267
2023-05-01T10:49:39.121Z,19.4798
2023-05-01T10:50:41.488Z,23.3155
2023-05-01T10:51:43.869Z,23.4117
2023-05-01T10:52:46.151Z,27.2561
2023-05-01T10:53:48.475Z,26.0271
2023-05-01T10:54:50.826Z,21.4373
2023-05-01T10:55:53.147Z,19.7885
2023-05-01T10:56:55.503Z,18.9132
2023-05-01T10:57:57.837Z,20.1267
2023-05-01T10:59:00.166Z,17.7374
2023-05-01T11:00:02.510Z,16.8978
2023-05-01T11:01:04.840Z,19.7471
2023-05-01T11:02:07.198Z,17.9074
2023-05-01T11:03:09.582Z,19.4864
2023-05-01T11:04:11.849Z,18.9048
2023-05-01T11:05:14.254Z,17.5647
2023-05-01T11:06:16.687Z,16.8132
2023-05-01T11:07:19.093Z,14.8717
2023-05-01T11:08:21.215Z,17.3515
2023-05-01T11:09:23.545Z,17.3812
2023-05-01T11:10:25.891Z,16.8762
2023-05-01T11:11:28.212Z,15.6339
2023-05-01T11:12:30.558Z,16.2255
2023-05-01T11:13:32.886Z,16.7970
2023-05-01T11:14:35.242Z,16.5643
2023-05-01T11:15:37.564Z,16.7218
2023-05-01T11:16:40.060Z,18.1129
2023-05-01T11:17:42.662Z,17.5214
2023-05-01T11:18:44.653Z,17.9516
2023-05-01T11:19:46.884Z,17.5803
2023-05-01T11:20:49.216Z,16.3852
2023-05-01T11:21:51.566Z,17.7621
2023-05-01T11:22:54.001Z,17.1058
2023-05-01T11:23:56.228Z,18.9746
2023-05-01T11:24:58.987Z,18.0920
2023-05-01T11:26:00.900Z,17.2572
2023-05-01T11:27:03.245Z,17.1696
2023-05-01T11:28:05.577Z,16.3823
2023-05-01T11:29:07.901Z,16.3363
2023-05-01T11:30:10.234Z,15.1104
2023-05-01T11:31:12.632Z,14.2932
2023-05-01T11:32:15.122Z,17.6584
2023-05-01T11:33:17.306Z,17.5932
2023-05-01T11:34:19.576Z,16.3432
2023-05-01T11:35:21.907Z,14.2090
2023-05-01T11:36:24.277Z,15.6088
2023-05-01T11:37:26.587Z,15.0549
2023-05-01T11:38:28.927Z,15.8660
2023-05-01T11:39:31.243Z,17.1843
2023-05-01T11:40:43.119Z,15.8979
2023-05-01T11:41:45.222Z,16.8161
2023-05-01T11:42:38.281Z,17.1956
2023-05-01T11:43:40.644Z,17.4568
2023-05-01T11:44:42.936Z,16.4459
2023-05-01T11:45:45.313Z,15.7797
2023-05-01T11:46:47.614Z,15.6227
2023-05-01T11:47:50.091Z,13.9257
2023-05-01T11:48:52.271Z,13.9837
2023-05-01T11:49:54.604Z,16.3338
2023-05-01T11:50:56.931Z,15.4274
2023-05-01T11:51:59.330Z,16.4383
2023-05-01T11:53:01.604Z,14.4222
2023-05-01T11:54:03.972Z,16.3768
2023-05-01T11:55:06.291Z,16.8196
2023-05-01T11:56:19.503Z,15.7579
2023-05-01T11:57:10.952Z,17.7704
2023-05-01T11:58:13.283Z,23.5400
2023-05-01T11:59:15.638Z,19.2138
2023-05-01T12:00:17.959Z,20.5588
2023-05-01T12:01:20.291Z,18.5922
2023-05-01T12:02:22.698Z,17.3057
2023-05-01T12:03:25.166Z,19.7280
2023-05-01T12:04:30.683Z,19.4628
2023-05-01T12:05:29.640Z,18.5680
2023-05-01T12:06:31.998Z,18.2721
2023-05-01T12:07:34.307Z,18.3022
2023-05-01T12:08:36.640Z,17.4674
2023-05-01T12:09:38.980Z,18.3734
2023-05-01T12:10:41.343Z,19.3771
2023-05-01T12:11:43.651Z,20.4869
2023-05-01T12:12:45.975Z,17.6318
2023-05-01T12:13:48.310Z,19.3055
2023-05-01T12:14:50.655Z,19.6575
2023-05-01T12:15:52.999Z,19.3408
2023-05-01T12:16:55.373Z,15.8938
2023-05-01T12:17:57.742Z,15.4650
2023-05-01T12:19:00.018Z,15.9207
2023-05-01T12:20:02.327Z,14.9590
2023-05-01T12:21:04.698Z,16.9268
2023-05-01T12:22:07.015Z,14.9885
2023-05-01T12:23:09.338Z,15.2890
2023-05-01T12:24:11.679Z,15.7379
2023-05-01T12:25:14.014Z,16.5851
2023-05-01T12:26:16.389Z,16.2203
2023-05-01T12:27:18.681Z,15.8975
2023-05-01T12:28:21.010Z,14.9469
2023-05-01T12:29:23.362Z,15.2288
2023-05-01T12:30:25.677Z,15.6119
2023-05-01T12:31:28.126Z,15.5031
2023-05-01T12:32:30.402Z,15.1200
2023-05-01T12:33:32.685Z,15.1697